sensor_id;sensor_type;location;lat;lon;timestamp;temperature;humidity
25628;DHT22;40915;50.826;4.356;2024-02-28T01:15:40;4.90;99.90
25628;DHT22;40915;50.826;4.356;2024-02-28T01:18:07;4.80;99.90
25628;DHT22;40915;50.826;4.356;2024-02-28T01:20:32;4.80;99.90
25628;DHT22;40915;50.826;4.356;2024-02-28T01:22:58;4.70;99.90
25628;DHT22;40915;50.826;4.356;2024-02-28T01:25:23;4.70;99.90
25628;DHT22;40915;50.826;4.356;2024-02-28T01:27:49;4.60;99.90
25628;DHT22;40915;50.826;4.356;2024-02-28T01:30:14;4.60;99.90
25628;DHT22;40915;50.826;4.356;2024-02-28T01:32:40;4.60;99.90
25628;DHT22;40915;50.826;4.356;2024-02-28T01:35:08;4.60;99.90
25628;DHT22;40915;50.826;4.356;2024-02-28T01:37:34;4.60;99.90
25628;DHT22;40915;50.826;4.356;2024-02-28T01:40:00;4.60;99.90
25628;DHT22;40915;50.826;4.356;2024-02-28T01:42:25;4.50;99.90
25628;DHT22;40915;50.826;4.356;2024-02-28T01:44:51;4.50;99.90
25628;DHT22;40915;50.826;4.356;2024-02-28T01:47:17;4.50;99.90
25628;DHT22;40915;50.826;4.356;2024-02-28T01:49:44;4.50;99.90
25628;DHT22;40915;50.826;4.356;2024-02-28T01:52:11;4.50;99.90
25628;DHT22;40915;50.826;4.356;2024-02-28T01:54:38;4.50;99.90
25628;DHT22;40915;50.826;4.356;2024-02-28T01:57:05;4.50;99.90
25628;DHT22;40915;50.826;4.356;2024-02-28T01:59:31;4.50;99.90
25628;DHT22;40915;50.826;4.356;2024-02-28T02:01:57;4.50;99.90
25628;DHT22;40915;50.826;4.356;2024-02-28T02:04:24;4.60;99.90
25628;DHT22;40915;50.826;4.356;2024-02-28T02:06:50;4.60;99.90
25628;DHT22;40915;50.826;4.356;2024-02-28T02:09:16;4.50;99.90
25628;DHT22;40915;50.826;4.356;2024-02-28T02:11:42;4.50;99.90
25628;DHT22;40915;50.826;4.356;2024-02-28T02:14:07;4.50;99.90
25628;DHT22;40915;50.826;4.356;2024-02-28T02:16:33;4.60;99.90
25628;DHT22;40915;50.826;4.356;2024-02-28T02:18:59;4.50;99.90
25628;DHT22;40915;50.826;4.356;2024-02-28T02:21:30;4.50;99.90
25628;DHT22;40915;50.826;4.356;2024-02-28T02:23:56;4.50;99.90
25628;DHT22;40915;50.826;4.356;2024-02-28T02:26:21;4.50;99.90
25628;DHT22;40915;50.826;4.356;2024-02-28T02:28:47;4.50;99.90
25628;DHT22;40915;50.826;4.356;2024-02-28T02:31:13;4.50;99.90
25628;DHT22;40915;50.826;4.356;2024-02-28T02:33:39;4.40;99.90
25628;DHT22;40915;50.826;4.356;2024-02-28T02:36:05;4.40;99.90
25628;DHT22;40915;50.826;4.356;2024-02-28T02:38:31;4.40;99.90
25628;DHT22;40915;50.826;4.356;2024-02-28T02:40:56;4.40;99.90
25628;DHT22;40915;50.826;4.356;2024-02-28T02:43:22;4.40;99.90
25628;DHT22;40915;50.826;4.356;2024-02-28T02:45:48;4.40;99.90
25628;DHT22;40915;50.826;4.356;2024-02-28T02:48:13;4.40;99.90
25628;DHT22;40915;50.826;4.356;2024-02-28T02:50:39;4.30;99.90
25628;DHT22;40915;50.826;4.356;2024-02-28T02:53:10;4.30;99.90
25628;DHT22;40915;50.826;4.356;2024-02-28T02:55:36;4.30;99.90
25628;DHT22;40915;50.826;4.356;2024-02-28T02:58:01;4.30;99.90
25628;DHT22;40915;50.826;4.356;2024-02-28T03:00:28;4.20;99.90
25628;DHT22;40915;50.826;4.356;2024-02-28T03:02:54;4.20;99.90
25628;DHT22;40915;50.826;4.356;2024-02-28T03:05:19;4.20;99.90
25628;DHT22;40915;50.826;4.356;2024-02-28T03:07:45;4.20;99.90
25628;DHT22;40915;50.826;4.356;2024-02-28T03:10:11;4.20;99.90
25628;DHT22;40915;50.826;4.356;2024-02-28T03:12:37;4.20;99.90
25628;DHT22;40915;50.826;4.356;2024-02-28T03:15:03;4.20;99.90
25628;DHT22;40915;50.826;4.356;2024-02-28T03:17:29;4.20;99.90
25628;DHT22;40915;50.826;4.356;2024-02-28T03:19:54;4.20;99.90
25628;DHT22;40915;50.826;4.356;2024-02-28T03:22:20;4.20;99.90
25628;DHT22;40915;50.826;4.356;2024-02-28T03:24:46;4.10;99.90
25628;DHT22;40915;50.826;4.356;2024-02-28T03:27:11;4.10;99.90
25628;DHT22;40915;50.826;4.356;2024-02-28T03:29:37;4.10;99.90
25628;DHT22;40915;50.826;4.356;2024-02-28T03:32:03;4.10;99.90
25628;DHT22;40915;50.826;4.356;2024-02-28T03:34:29;4.10;99.90
25628;DHT22;40915;50.826;4.356;2024-02-28T03:36:55;4.10;99.90
25628;DHT22;40915;50.826;4.356;2024-02-28T03:39:21;4.10;99.90
25628;DHT22;40915;50.826;4.356;2024-02-28T03:41:46;4.10;99.90
25628;DHT22;40915;50.826;4.356;2024-02-28T03:44:12;4.00;99.90
25628;DHT22;40915;50.826;4.356;2024-02-28T03:46:37;4.00;99.90
25628;DHT22;40915;50.826;4.356;2024-02-28T03:49:03;4.00;99.90
25628;DHT22;40915;50.826;4.356;2024-02-28T03:51:29;4.00;99.90
25628;DHT22;40915;50.826;4.356;2024-02-28T03:53:55;4.00;99.90
25628;DHT22;40915;50.826;4.356;2024-02-28T03:56:26;4.00;99.90
25628;DHT22;40915;50.826;4.356;2024-02-28T03:58:53;4.00;99.90
25628;DHT22;40915;50.826;4.356;2024-02-28T04:01:18;4.00;99.90
25628;DHT22;40915;50.826;4.356;2024-02-28T04:03:44;4.00;99.90
25628;DHT22;40915;50.826;4.356;2024-02-28T04:06:12;4.00;99.90
25628;DHT22;40915;50.826;4.356;2024-02-28T04:08:40;4.00;99.90
25628;DHT22;40915;50.826;4.356;2024-02-28T04:11:06;3.90;99.90
25628;DHT22;40915;50.826;4.356;2024-02-28T04:13:31;4.00;99.90
25628;DHT22;40915;50.826;4.356;2024-02-28T04:15:57;4.00;99.90
25628;DHT22;40915;50.826;4.356;2024-02-28T04:18:22;4.00;99.90
25628;DHT22;40915;50.826;4.356;2024-02-28T04:20:48;4.00;99.90
25628;DHT22;40915;50.826;4.356;2024-02-28T04:23:14;4.00;99.90
25628;DHT22;40915;50.826;4.356;2024-02-28T04:25:39;4.00;99.90
25628;DHT22;40915;50.826;4.356;2024-02-28T04:28:06;4.00;99.90
25628;DHT22;40915;50.826;4.356;2024-02-28T04:30:32;4.00;99.90
25628;DHT22;40915;50.826;4.356;2024-02-28T04:32:58;4.00;99.90
25628;DHT22;40915;50.826;4.356;2024-02-28T04:35:24;3.90;99.90
25628;DHT22;40915;50.826;4.356;2024-02-28T04:37:49;3.90;99.90
25628;DHT22;40915;50.826;4.356;2024-02-28T04:40:15;3.90;99.90
25628;DHT22;40915;50.826;4.356;2024-02-28T04:42:41;3.90;99.90
25628;DHT22;40915;50.826;4.356;2024-02-28T04:45:09;3.90;99.90
25628;DHT22;40915;50.826;4.356;2024-02-28T04:47:34;3.90;99.90
25628;DHT22;40915;50.826;4.356;2024-02-28T04:50:00;3.90;99.90
25628;DHT22;40915;50.826;4.356;2024-02-28T04:52:25;4.00;99.90
25628;DHT22;40915;50.826;4.356;2024-02-28T04:54:52;4.00;99.90
25628;DHT22;40915;50.826;4.356;2024-02-28T04:57:19;4.00;99.90
25628;DHT22;40915;50.826;4.356;2024-02-28T04:59:44;4.00;99.90
25628;DHT22;40915;50.826;4.356;2024-02-28T05:02:10;3.90;99.90
25628;DHT22;40915;50.826;4.356;2024-02-28T05:04:36;3.90;99.90
25628;DHT22;40915;50.826;4.356;2024-02-28T05:07:02;3.90;99.90
25628;DHT22;40915;50.826;4.356;2024-02-28T05:09:28;3.90;99.90
25628;DHT22;40915;50.826;4.356;2024-02-28T05:11:53;3.90;99.90
25628;DHT22;40915;50.826;4.356;2024-02-28T05:14:19;4.00;99.90
25628;DHT22;40915;50.826;4.356;2024-02-28T05:16:46;4.00;99.90
25628;DHT22;40915;50.826;4.356;2024-02-28T05:19:12;4.00;99.90
25628;DHT22;40915;50.826;4.356;2024-02-28T05:21:41;4.10;99.90
25628;DHT22;40915;50.826;4.356;2024-02-28T05:24:07;4.10;99.90
25628;DHT22;40915;50.826;4.356;2024-02-28T05:26:35;4.10;99.90
25628;DHT22;40915;50.826;4.356;2024-02-28T05:29:01;4.10;99.90
25628;DHT22;40915;50.826;4.356;2024-02-28T05:31:27;4.10;99.90
25628;DHT22;40915;50.826;4.356;2024-02-28T05:33:55;4.20;99.90
25628;DHT22;40915;50.826;4.356;2024-02-28T05:36:26;4.20;99.90
25628;DHT22;40915;50.826;4.356;2024-02-28T05:38:53;4.20;99.90
25628;DHT22;40915;50.826;4.356;2024-02-28T05:41:19;4.30;99.90
25628;DHT22;40915;50.826;4.356;2024-02-28T05:43:46;4.30;99.90
25628;DHT22;40915;50.826;4.356;2024-02-28T05:46:12;4.30;99.90
25628;DHT22;40915;50.826;4.356;2024-02-28T05:48:38;4.30;99.90
25628;DHT22;40915;50.826;4.356;2024-02-28T05:51:03;4.30;99.90
25628;DHT22;40915;50.826;4.356;2024-02-28T05:53:30;4.40;99.90
25628;DHT22;40915;50.826;4.356;2024-02-28T05:56:02;4.40;99.90
25628;DHT22;40915;50.826;4.356;2024-02-28T05:58:27;4.50;99.90
25628;DHT22;40915;50.826;4.356;2024-02-28T06:00:53;4.50;99.90
25628;DHT22;40915;50.826;4.356;2024-02-28T06:03:18;4.50;99.90
25628;DHT22;40915;50.826;4.356;2024-02-28T06:05:44;4.50;99.90
25628;DHT22;40915;50.826;4.356;2024-02-28T06:08:10;4.50;99.90
25628;DHT22;40915;50.826;4.356;2024-02-28T06:10:35;4.60;99.90
25628;DHT22;40915;50.826;4.356;2024-02-28T06:13:02;4.70;99.90
25628;DHT22;40915;50.826;4.356;2024-02-28T06:15:27;4.70;99.90
25628;DHT22;40915;50.826;4.356;2024-02-28T06:17:56;4.70;99.90
25628;DHT22;40915;50.826;4.356;2024-02-28T06:20:21;4.70;99.90
25628;DHT22;40915;50.826;4.356;2024-02-28T06:22:47;4.70;99.90
25628;DHT22;40915;50.826;4.356;2024-02-28T06:25:12;4.80;99.90
25628;DHT22;40915;50.826;4.356;2024-02-28T06:27:45;4.80;99.90
25628;DHT22;40915;50.826;4.356;2024-02-28T06:30:11;4.80;99.90
25628;DHT22;40915;50.826;4.356;2024-02-28T06:32:40;4.90;99.90
25628;DHT22;40915;50.826;4.356;2024-02-28T06:35:07;4.90;99.90
25628;DHT22;40915;50.826;4.356;2024-02-28T06:37:33;5.00;99.90
25628;DHT22;40915;50.826;4.356;2024-02-28T06:39:59;5.00;99.90
25628;DHT22;40915;50.826;4.356;2024-02-28T06:42:24;5.00;99.90
25628;DHT22;40915;50.826;4.356;2024-02-28T06:44:50;5.10;99.90
25628;DHT22;40915;50.826;4.356;2024-02-28T06:47:16;5.10;99.90
25628;DHT22;40915;50.826;4.356;2024-02-28T06:49:41;5.10;99.90
25628;DHT22;40915;50.826;4.356;2024-02-28T06:52:07;5.20;99.90
25628;DHT22;40915;50.826;4.356;2024-02-28T06:54:33;5.20;99.90
25628;DHT22;40915;50.826;4.356;2024-02-28T06:56:58;5.20;99.90
25628;DHT22;40915;50.826;4.356;2024-02-28T06:59:24;5.20;99.90
25628;DHT22;40915;50.826;4.356;2024-02-28T07:01:49;5.20;99.90
25628;DHT22;40915;50.826;4.356;2024-02-28T07:04:15;5.20;99.90
25628;DHT22;40915;50.826;4.356;2024-02-28T07:06:40;5.30;99.90
25628;DHT22;40915;50.826;4.356;2024-02-28T07:09:09;5.30;99.90
25628;DHT22;40915;50.826;4.356;2024-02-28T07:11:35;5.30;99.90
25628;DHT22;40915;50.826;4.356;2024-02-28T07:14:00;5.30;99.90
25628;DHT22;40915;50.826;4.356;2024-02-28T07:16:29;5.30;99.90
25628;DHT22;40915;50.826;4.356;2024-02-28T07:18:55;5.30;99.90
25628;DHT22;40915;50.826;4.356;2024-02-28T07:21:21;5.30;99.90
25628;DHT22;40915;50.826;4.356;2024-02-28T07:23:46;5.30;99.90
25628;DHT22;40915;50.826;4.356;2024-02-28T07:26:15;5.40;99.90
25628;DHT22;40915;50.826;4.356;2024-02-28T07:28:41;5.40;99.90
25628;DHT22;40915;50.826;4.356;2024-02-28T07:31:13;5.50;99.90
25628;DHT22;40915;50.826;4.356;2024-02-28T07:33:40;5.60;99.90
25628;DHT22;40915;50.826;4.356;2024-02-28T07:36:06;5.70;99.90
25628;DHT22;40915;50.826;4.356;2024-02-28T07:38:32;5.80;99.90
25628;DHT22;40915;50.826;4.356;2024-02-28T07:40:58;5.90;99.90
25628;DHT22;40915;50.826;4.356;2024-02-28T07:43:23;6.00;99.90
25628;DHT22;40915;50.826;4.356;2024-02-28T07:45:49;6.00;99.90
25628;DHT22;40915;50.826;4.356;2024-02-28T07:48:15;6.00;99.90
25628;DHT22;40915;50.826;4.356;2024-02-28T07:50:46;6.10;99.90
25628;DHT22;40915;50.826;4.356;2024-02-28T07:53:14;6.10;99.90
25628;DHT22;40915;50.826;4.356;2024-02-28T07:55:40;6.20;99.90
25628;DHT22;40915;50.826;4.356;2024-02-28T07:58:06;6.20;99.90
25628;DHT22;40915;50.826;4.356;2024-02-28T08:00:32;6.10;99.90
25628;DHT22;40915;50.826;4.356;2024-02-28T08:03:00;6.20;99.90
25628;DHT22;40915;50.826;4.356;2024-02-28T08:05:26;6.20;99.90
25628;DHT22;40915;50.826;4.356;2024-02-28T08:07:51;6.20;99.90
25628;DHT22;40915;50.826;4.356;2024-02-28T08:10:17;6.20;99.90
25628;DHT22;40915;50.826;4.356;2024-02-28T08:12:43;6.20;99.90
25628;DHT22;40915;50.826;4.356;2024-02-28T08:15:08;6.30;99.90
25628;DHT22;40915;50.826;4.356;2024-02-28T08:17:34;6.30;99.90
25628;DHT22;40915;50.826;4.356;2024-02-28T08:20:00;6.30;99.90
25628;DHT22;40915;50.826;4.356;2024-02-28T08:22:26;6.40;99.90
25628;DHT22;40915;50.826;4.356;2024-02-28T08:24:52;6.40;99.90
25628;DHT22;40915;50.826;4.356;2024-02-28T08:27:18;6.50;99.90
25628;DHT22;40915;50.826;4.356;2024-02-28T08:29:43;6.50;99.90
25628;DHT22;40915;50.826;4.356;2024-02-28T08:32:11;6.60;99.90
25628;DHT22;40915;50.826;4.356;2024-02-28T08:34:36;6.60;99.90
25628;DHT22;40915;50.826;4.356;2024-02-28T08:37:02;6.60;99.90
25628;DHT22;40915;50.826;4.356;2024-02-28T08:39:27;6.60;99.90
25628;DHT22;40915;50.826;4.356;2024-02-28T08:41:53;6.60;99.90
25628;DHT22;40915;50.826;4.356;2024-02-28T08:44:19;6.60;99.90
25628;DHT22;40915;50.826;4.356;2024-02-28T08:46:47;6.60;99.90
25628;DHT22;40915;50.826;4.356;2024-02-28T08:49:14;6.60;99.90
25628;DHT22;40915;50.826;4.356;2024-02-28T08:51:39;6.60;99.90
25628;DHT22;40915;50.826;4.356;2024-02-28T08:54:06;6.60;99.90
25628;DHT22;40915;50.826;4.356;2024-02-28T08:56:31;6.70;99.90
25628;DHT22;40915;50.826;4.356;2024-02-28T08:58:57;6.70;99.90
25628;DHT22;40915;50.826;4.356;2024-02-28T09:01:22;6.80;99.90
25628;DHT22;40915;50.826;4.356;2024-02-28T09:03:48;6.90;99.90
25628;DHT22;40915;50.826;4.356;2024-02-28T09:06:14;6.90;99.90
25628;DHT22;40915;50.826;4.356;2024-02-28T09:08:40;7.00;99.90
25628;DHT22;40915;50.826;4.356;2024-02-28T09:11:05;6.90;99.90
25628;DHT22;40915;50.826;4.356;2024-02-28T09:13:31;6.90;99.90
25628;DHT22;40915;50.826;4.356;2024-02-28T09:15:57;6.90;99.90
25628;DHT22;40915;50.826;4.356;2024-02-28T09:18:23;7.00;99.90
25628;DHT22;40915;50.826;4.356;2024-02-28T09:20:49;7.00;99.90
25628;DHT22;40915;50.826;4.356;2024-02-28T09:23:14;7.10;99.90
25628;DHT22;40915;50.826;4.356;2024-02-28T09:25:40;7.20;99.90
25628;DHT22;40915;50.826;4.356;2024-02-28T09:28:06;7.30;99.90
25628;DHT22;40915;50.826;4.356;2024-02-28T09:30:31;7.40;99.90
25628;DHT22;40915;50.826;4.356;2024-02-28T09:32:57;7.50;99.90
25628;DHT22;40915;50.826;4.356;2024-02-28T09:35:22;7.40;99.90
25628;DHT22;40915;50.826;4.356;2024-02-28T09:37:48;7.30;99.90
25628;DHT22;40915;50.826;4.356;2024-02-28T09:40:14;7.30;99.90
25628;DHT22;40915;50.826;4.356;2024-02-28T09:42:39;7.40;99.90
25628;DHT22;40915;50.826;4.356;2024-02-28T09:45:08;7.40;99.90
25628;DHT22;40915;50.826;4.356;2024-02-28T09:47:35;7.40;99.90
25628;DHT22;40915;50.826;4.356;2024-02-28T09:50:01;7.40;99.90
25628;DHT22;40915;50.826;4.356;2024-02-28T09:52:28;7.50;99.90
25628;DHT22;40915;50.826;4.356;2024-02-28T09:54:53;7.60;99.90
25628;DHT22;40915;50.826;4.356;2024-02-28T09:57:19;7.70;99.90
25628;DHT22;40915;50.826;4.356;2024-02-28T09:59:46;7.80;99.90
25628;DHT22;40915;50.826;4.356;2024-02-28T10:02:14;7.90;99.90
25628;DHT22;40915;50.826;4.356;2024-02-28T10:04:42;8.00;99.90
25628;DHT22;40915;50.826;4.356;2024-02-28T10:07:12;8.10;99.90
25628;DHT22;40915;50.826;4.356;2024-02-28T10:09:41;8.00;99.90
25628;DHT22;40915;50.826;4.356;2024-02-28T10:12:07;8.00;99.90
25628;DHT22;40915;50.826;4.356;2024-02-28T10:14:32;8.00;99.90
25628;DHT22;40915;50.826;4.356;2024-02-28T10:16:58;8.00;99.90
25628;DHT22;40915;50.826;4.356;2024-02-28T10:19:24;8.00;99.90
25628;DHT22;40915;50.826;4.356;2024-02-28T10:21:50;8.00;99.90
25628;DHT22;40915;50.826;4.356;2024-02-28T10:24:16;8.20;99.90
25628;DHT22;40915;50.826;4.356;2024-02-28T10:26:45;8.30;99.90
25628;DHT22;40915;50.826;4.356;2024-02-28T10:29:23;8.50;99.90
25628;DHT22;40915;50.826;4.356;2024-02-28T10:31:49;8.50;99.90
25628;DHT22;40915;50.826;4.356;2024-02-28T10:34:16;8.70;99.90
25628;DHT22;40915;50.826;4.356;2024-02-28T10:36:43;8.80;99.90
25628;DHT22;40915;50.826;4.356;2024-02-28T10:39:11;8.70;99.90
25628;DHT22;40915;50.826;4.356;2024-02-28T10:41:38;8.70;99.90
25628;DHT22;40915;50.826;4.356;2024-02-28T10:44:04;8.70;99.90
25628;DHT22;40915;50.826;4.356;2024-02-28T10:46:30;8.90;99.90
25628;DHT22;40915;50.826;4.356;2024-02-28T10:48:56;8.90;99.90
25628;DHT22;40915;50.826;4.356;2024-02-28T10:51:26;9.00;99.90
25628;DHT22;40915;50.826;4.356;2024-02-28T10:54:19;9.10;99.90
25628;DHT22;40915;50.826;4.356;2024-02-28T10:56:46;9.20;99.90
25628;DHT22;40915;50.826;4.356;2024-02-28T10:59:14;9.30;99.90
25628;DHT22;40915;50.826;4.356;2024-02-28T11:01:43;9.30;99.90
25628;DHT22;40915;50.826;4.356;2024-02-28T11:04:15;9.40;99.90
25628;DHT22;40915;50.826;4.356;2024-02-28T11:06:51;9.50;99.90
25628;DHT22;40915;50.826;4.356;2024-02-28T11:09:21;9.40;99.90
25628;DHT22;40915;50.826;4.356;2024-02-28T11:11:51;9.30;99.90
25628;DHT22;40915;50.826;4.356;2024-02-28T11:14:17;9.30;99.90
25628;DHT22;40915;50.826;4.356;2024-02-28T11:16:42;9.40;99.90
25628;DHT22;40915;50.826;4.356;2024-02-28T11:19:22;9.60;99.90
25628;DHT22;40915;50.826;4.356;2024-02-28T11:21:57;9.50;99.90
25628;DHT22;40915;50.826;4.356;2024-02-28T11:24:24;9.60;99.90
25628;DHT22;40915;50.826;4.356;2024-02-28T11:26:53;9.70;99.90
25628;DHT22;40915;50.826;4.356;2024-02-28T11:29:26;9.90;99.90
25628;DHT22;40915;50.826;4.356;2024-02-28T11:31:52;10.00;99.90
25628;DHT22;40915;50.826;4.356;2024-02-28T11:34:18;10.00;99.90
25628;DHT22;40915;50.826;4.356;2024-02-28T11:36:47;10.00;99.90
25628;DHT22;40915;50.826;4.356;2024-02-28T11:39:13;10.00;99.90
25628;DHT22;40915;50.826;4.356;2024-02-28T11:41:39;10.00;99.90
25628;DHT22;40915;50.826;4.356;2024-02-28T11:44:05;10.00;99.90
25628;DHT22;40915;50.826;4.356;2024-02-28T11:46:31;10.00;99.90
25628;DHT22;40915;50.826;4.356;2024-02-28T11:48:57;10.20;99.90
25628;DHT22;40915;50.826;4.356;2024-02-28T11:51:23;10.30;99.90
25628;DHT22;40915;50.826;4.356;2024-02-28T11:53:48;10.30;99.90
25628;DHT22;40915;50.826;4.356;2024-02-28T11:56:14;10.30;99.90
25628;DHT22;40915;50.826;4.356;2024-02-28T11:58:52;10.30;99.90
25628;DHT22;40915;50.826;4.356;2024-02-28T12:01:19;10.40;99.90
25628;DHT22;40915;50.826;4.356;2024-02-28T12:03:45;10.50;99.90
25628;DHT22;40915;50.826;4.356;2024-02-28T12:06:14;10.60;99.90
25628;DHT22;40915;50.826;4.356;2024-02-28T12:08:39;10.60;99.90
25628;DHT22;40915;50.826;4.356;2024-02-28T12:11:08;10.00;99.90
25628;DHT22;40915;50.826;4.356;2024-02-28T12:16:05;10.80;99.90
25628;DHT22;40915;50.826;4.356;2024-02-28T12:18:31;10.90;99.90
25628;DHT22;40915;50.826;4.356;2024-02-28T12:20:57;11.10;99.90
25628;DHT22;40915;50.826;4.356;2024-02-28T12:23:22;11.00;99.90
25628;DHT22;40915;50.826;4.356;2024-02-28T12:25:48;11.10;99.90
25628;DHT22;40915;50.826;4.356;2024-02-28T12:28:13;11.10;99.90
25628;DHT22;40915;50.826;4.356;2024-02-28T12:30:41;11.00;99.90
25628;DHT22;40915;50.826;4.356;2024-02-28T12:33:08;11.00;99.90
25628;DHT22;40915;50.826;4.356;2024-02-28T12:35:33;11.00;99.90
25628;DHT22;40915;50.826;4.356;2024-02-28T12:37:59;11.00;99.90
25628;DHT22;40915;50.826;4.356;2024-02-28T12:40:25;11.10;99.90
25628;DHT22;40915;50.826;4.356;2024-02-28T12:42:50;11.10;99.90
25628;DHT22;40915;50.826;4.356;2024-02-28T12:45:16;11.10;99.90
25628;DHT22;40915;50.826;4.356;2024-02-28T12:47:42;11.00;99.90
25628;DHT22;40915;50.826;4.356;2024-02-28T12:50:08;10.90;99.90
25628;DHT22;40915;50.826;4.356;2024-02-28T12:52:35;10.90;99.90
25628;DHT22;40915;50.826;4.356;2024-02-28T12:55:01;10.80;99.90
25628;DHT22;40915;50.826;4.356;2024-02-28T12:57:26;10.90;99.90
25628;DHT22;40915;50.826;4.356;2024-02-28T12:59:52;11.00;99.90
25628;DHT22;40915;50.826;4.356;2024-02-28T13:02:18;11.00;99.90
25628;DHT22;40915;50.826;4.356;2024-02-28T13:04:45;11.00;99.90
25628;DHT22;40915;50.826;4.356;2024-02-28T13:07:10;10.90;99.90
25628;DHT22;40915;50.826;4.356;2024-02-28T13:09:37;10.80;99.90
25628;DHT22;40915;50.826;4.356;2024-02-28T13:12:03;10.90;99.90
25628;DHT22;40915;50.826;4.356;2024-02-28T13:14:30;10.90;99.90
25628;DHT22;40915;50.826;4.356;2024-02-28T13:16:55;10.90;99.90
25628;DHT22;40915;50.826;4.356;2024-02-28T13:19:21;11.00;99.90
25628;DHT22;40915;50.826;4.356;2024-02-28T13:21:46;10.90;99.90
25628;DHT22;40915;50.826;4.356;2024-02-28T13:24:12;10.90;99.90
25628;DHT22;40915;50.826;4.356;2024-02-28T13:26:40;10.90;99.90
25628;DHT22;40915;50.826;4.356;2024-02-28T13:29:06;10.90;99.90
25628;DHT22;40915;50.826;4.356;2024-02-28T13:31:33;11.00;99.90
25628;DHT22;40915;50.826;4.356;2024-02-28T13:33:59;11.00;99.90
25628;DHT22;40915;50.826;4.356;2024-02-28T13:36:26;11.00;99.90
25628;DHT22;40915;50.826;4.356;2024-02-28T13:38:51;11.00;99.90
25628;DHT22;40915;50.826;4.356;2024-02-28T13:41:17;11.00;99.90
25628;DHT22;40915;50.826;4.356;2024-02-28T13:43:43;11.00;99.90
25628;DHT22;40915;50.826;4.356;2024-02-28T13:46:08;11.00;99.90
25628;DHT22;40915;50.826;4.356;2024-02-28T13:48:35;11.00;99.90
25628;DHT22;40915;50.826;4.356;2024-02-28T13:51:01;11.00;99.90
25628;DHT22;40915;50.826;4.356;2024-02-28T13:53:29;11.00;99.90
25628;DHT22;40915;50.826;4.356;2024-02-28T13:55:55;11.00;99.90
25628;DHT22;40915;50.826;4.356;2024-02-28T13:58:20;11.00;99.90
25628;DHT22;40915;50.826;4.356;2024-02-28T14:00:46;11.00;99.90
25628;DHT22;40915;50.826;4.356;2024-02-28T14:03:13;10.80;99.90
25628;DHT22;40915;50.826;4.356;2024-02-28T14:05:39;10.80;99.90
25628;DHT22;40915;50.826;4.356;2024-02-28T14:08:05;10.70;99.90
25628;DHT22;40915;50.826;4.356;2024-02-28T14:10:33;10.70;99.90
25628;DHT22;40915;50.826;4.356;2024-02-28T14:12:59;10.80;99.90
25628;DHT22;40915;50.826;4.356;2024-02-28T14:15:24;10.80;99.90
25628;DHT22;40915;50.826;4.356;2024-02-28T14:17:51;10.90;99.90
25628;DHT22;40915;50.826;4.356;2024-02-28T14:20:17;10.80;99.90
25628;DHT22;40915;50.826;4.356;2024-02-28T14:22:42;10.80;99.90
25628;DHT22;40915;50.826;4.356;2024-02-28T14:25:13;10.90;99.90
25628;DHT22;40915;50.826;4.356;2024-02-28T14:27:39;10.90;99.90
25628;DHT22;40915;50.826;4.356;2024-02-28T14:30:07;10.80;99.90
25628;DHT22;40915;50.826;4.356;2024-02-28T14:32:34;10.90;99.90
25628;DHT22;40915;50.826;4.356;2024-02-28T14:35:02;10.90;99.90
25628;DHT22;40915;50.826;4.356;2024-02-28T14:37:28;10.90;99.90
25628;DHT22;40915;50.826;4.356;2024-02-28T14:39:54;10.90;99.90
25628;DHT22;40915;50.826;4.356;2024-02-28T14:42:20;10.80;99.90
25628;DHT22;40915;50.826;4.356;2024-02-28T14:44:45;10.70;99.90
25628;DHT22;40915;50.826;4.356;2024-02-28T14:47:11;10.70;99.90
25628;DHT22;40915;50.826;4.356;2024-02-28T14:49:36;10.60;99.90
25628;DHT22;40915;50.826;4.356;2024-02-28T14:52:03;10.60;99.90
25628;DHT22;40915;50.826;4.356;2024-02-28T14:54:28;10.40;99.90
25628;DHT22;40915;50.826;4.356;2024-02-28T14:56:54;10.40;99.90
25628;DHT22;40915;50.826;4.356;2024-02-28T14:59:20;10.40;99.90
25628;DHT22;40915;50.826;4.356;2024-02-28T15:01:45;10.50;99.90
25628;DHT22;40915;50.826;4.356;2024-02-28T15:04:11;10.50;99.90
25628;DHT22;40915;50.826;4.356;2024-02-28T15:06:39;10.60;99.90
25628;DHT22;40915;50.826;4.356;2024-02-28T15:09:05;10.70;99.90
25628;DHT22;40915;50.826;4.356;2024-02-28T15:11:31;10.70;99.90
25628;DHT22;40915;50.826;4.356;2024-02-28T15:13:56;10.70;99.90
25628;DHT22;40915;50.826;4.356;2024-02-28T15:16:22;10.70;99.90
25628;DHT22;40915;50.826;4.356;2024-02-28T15:18:47;10.70;99.90
25628;DHT22;40915;50.826;4.356;2024-02-28T15:21:13;10.60;99.90
25628;DHT22;40915;50.826;4.356;2024-02-28T15:23:38;10.70;99.90
25628;DHT22;40915;50.826;4.356;2024-02-28T15:26:04;10.70;99.90
25628;DHT22;40915;50.826;4.356;2024-02-28T15:28:29;10.70;99.90
25628;DHT22;40915;50.826;4.356;2024-02-28T15:30:56;10.70;99.90
25628;DHT22;40915;50.826;4.356;2024-02-28T15:33:22;10.70;99.90
25628;DHT22;40915;50.826;4.356;2024-02-28T15:35:47;10.70;99.90
25628;DHT22;40915;50.826;4.356;2024-02-28T15:38:13;10.70;99.90
25628;DHT22;40915;50.826;4.356;2024-02-28T15:40:39;10.70;99.90
25628;DHT22;40915;50.826;4.356;2024-02-28T15:43:05;10.60;99.90
25628;DHT22;40915;50.826;4.356;2024-02-28T15:45:31;10.50;99.90
25628;DHT22;40915;50.826;4.356;2024-02-28T15:47:57;10.60;99.90
25628;DHT22;40915;50.826;4.356;2024-02-28T15:50:24;10.60;99.90
25628;DHT22;40915;50.826;4.356;2024-02-28T15:52:50;10.50;99.90
25628;DHT22;40915;50.826;4.356;2024-02-28T15:55:15;10.50;99.90
25628;DHT22;40915;50.826;4.356;2024-02-28T15:57:46;10.50;99.90
25628;DHT22;40915;50.826;4.356;2024-02-28T16:00:13;10.50;99.90
25628;DHT22;40915;50.826;4.356;2024-02-28T16:02:38;10.50;99.90
25628;DHT22;40915;50.826;4.356;2024-02-28T16:05:04;10.50;99.90
25628;DHT22;40915;50.826;4.356;2024-02-28T16:07:30;10.50;99.90
25628;DHT22;40915;50.826;4.356;2024-02-28T16:09:56;10.50;99.90
25628;DHT22;40915;50.826;4.356;2024-02-28T16:12:22;10.40;99.90
25628;DHT22;40915;50.826;4.356;2024-02-28T16:14:49;10.30;99.90
25628;DHT22;40915;50.826;4.356;2024-02-28T16:17:15;10.30;99.90
25628;DHT22;40915;50.826;4.356;2024-02-28T16:19:44;10.20;99.90
25628;DHT22;40915;50.826;4.356;2024-02-28T16:22:11;10.30;99.90
25628;DHT22;40915;50.826;4.356;2024-02-28T16:24:37;10.30;99.90
25628;DHT22;40915;50.826;4.356;2024-02-28T16:27:03;10.30;99.90
25628;DHT22;40915;50.826;4.356;2024-02-28T16:29:29;10.20;99.90
25628;DHT22;40915;50.826;4.356;2024-02-28T16:31:55;10.20;99.90
25628;DHT22;40915;50.826;4.356;2024-02-28T16:34:21;10.20;99.90
25628;DHT22;40915;50.826;4.356;2024-02-28T16:36:48;10.10;99.90
25628;DHT22;40915;50.826;4.356;2024-02-28T16:39:14;10.20;99.90
25628;DHT22;40915;50.826;4.356;2024-02-28T16:41:40;10.00;99.90
25628;DHT22;40915;50.826;4.356;2024-02-28T16:44:05;9.90;99.90
25628;DHT22;40915;50.826;4.356;2024-02-28T16:46:31;9.90;99.90
25628;DHT22;40915;50.826;4.356;2024-02-28T16:48:57;9.70;99.90
25628;DHT22;40915;50.826;4.356;2024-02-28T16:51:22;9.60;99.90